sensor_id;sensor_type;location;lat;lon;timestamp;P1;durP1;ratioP1;P2;durP2;ratioP2
14169;SDS011;63889;50.596;8.690;2023-02-20T00:01:19;10.70;;;6.20;;
14169;SDS011;63889;50.596;8.690;2023-02-20T00:03:46;10.75;;;5.78;;
14169;SDS011;63889;50.596;8.690;2023-02-20T00:06:12;15.27;;;6.13;;
14169;SDS011;63889;50.596;8.690;2023-02-20T00:08:37;14.13;;;6.90;;
14169;SDS011;63889;50.596;8.690;2023-02-20T00:11:03;10.85;;;6.18;;
14169;SDS011;63889;50.596;8.690;2023-02-20T00:13:28;12.95;;;6.90;;
14169;SDS011;63889;50.596;8.690;2023-02-20T00:15:54;17.15;;;7.70;;
14169;SDS011;63889;50.596;8.690;2023-02-20T00:18:19;13.48;;;7.05;;
14169;SDS011;63889;50.596;8.690;2023-02-20T00:20:45;12.10;;;6.35;;
14169;SDS011;63889;50.596;8.690;2023-02-20T00:23:11;11.57;;;6.30;;
14169;SDS011;63889;50.596;8.690;2023-02-20T00:25:36;16.63;;;7.68;;
14169;SDS011;63889;50.596;8.690;2023-02-20T00:28:02;12.98;;;7.03;;
14169;SDS011;63889;50.596;8.690;2023-02-20T00:30:27;13.02;;;6.60;;
14169;SDS011;63889;50.596;8.690;2023-02-20T00:32:54;14.25;;;6.90;;
14169;SDS011;63889;50.596;8.690;2023-02-20T00:35:20;15.52;;;7.60;;
14169;SDS011;63889;50.596;8.690;2023-02-20T00:37:47;15.70;;;8.20;;
14169;SDS011;63889;50.596;8.690;2023-02-20T00:40:15;16.75;;;8.00;;
14169;SDS011;63889;50.596;8.690;2023-02-20T00:42:41;18.27;;;7.47;;
14169;SDS011;63889;50.596;8.690;2023-02-20T00:45:07;13.02;;;7.13;;
14169;SDS011;63889;50.596;8.690;2023-02-20T00:47:34;13.73;;;7.20;;
14169;SDS011;63889;50.596;8.690;2023-02-20T00:50:00;14.25;;;7.15;;
14169;SDS011;63889;50.596;8.690;2023-02-20T00:52:26;14.18;;;6.90;;
14169;SDS011;63889;50.596;8.690;2023-02-20T00:54:51;13.60;;;7.13;;
14169;SDS011;63889;50.596;8.690;2023-02-20T00:57:17;11.60;;;6.93;;
14169;SDS011;63889;50.596;8.690;2023-02-20T00:59:42;13.60;;;7.05;;
14169;SDS011;63889;50.596;8.690;2023-02-20T01:02:08;15.70;;;7.93;;
14169;SDS011;63889;50.596;8.690;2023-02-20T01:04:34;15.80;;;7.28;;
14169;SDS011;63889;50.596;8.690;2023-02-20T01:06:59;15.10;;;7.32;;
14169;SDS011;63889;50.596;8.690;2023-02-20T01:09:25;14.23;;;7.93;;
14169;SDS011;63889;50.596;8.690;2023-02-20T01:11:52;14.35;;;7.18;;
14169;SDS011;63889;50.596;8.690;2023-02-20T01:14:18;13.55;;;8.25;;
14169;SDS011;63889;50.596;8.690;2023-02-20T01:16:44;18.15;;;8.38;;
14169;SDS011;63889;50.596;8.690;2023-02-20T01:19:10;17.65;;;8.43;;
14169;SDS011;63889;50.596;8.690;2023-02-20T01:21:36;17.17;;;8.80;;
14169;SDS011;63889;50.596;8.690;2023-02-20T01:24:01;17.38;;;8.93;;
14169;SDS011;63889;50.596;8.690;2023-02-20T01:26:27;16.65;;;8.65;;
14169;SDS011;63889;50.596;8.690;2023-02-20T01:28:52;22.70;;;9.35;;
14169;SDS011;63889;50.596;8.690;2023-02-20T01:31:18;17.33;;;8.90;;
14169;SDS011;63889;50.596;8.690;2023-02-20T01:33:43;19.50;;;9.93;;
14169;SDS011;63889;50.596;8.690;2023-02-20T01:36:09;18.23;;;8.57;;
14169;SDS011;63889;50.596;8.690;2023-02-20T01:38:35;17.67;;;9.13;;
14169;SDS011;63889;50.596;8.690;2023-02-20T01:41:01;18.45;;;9.00;;
14169;SDS011;63889;50.596;8.690;2023-02-20T01:43:26;17.77;;;8.70;;
14169;SDS011;63889;50.596;8.690;2023-02-20T01:45:52;17.77;;;8.98;;
14169;SDS011;63889;50.596;8.690;2023-02-20T01:48:19;18.70;;;8.85;;
14169;SDS011;63889;50.596;8.690;2023-02-20T01:50:54;17.80;;;7.82;;
14169;SDS011;63889;50.596;8.690;2023-02-20T01:53:23;16.98;;;8.77;;
14169;SDS011;63889;50.596;8.690;2023-02-20T01:55:57;14.18;;;7.43;;
14169;SDS011;63889;50.596;8.690;2023-02-20T01:58:30;16.10;;;8.50;;
14169;SDS011;63889;50.596;8.690;2023-02-20T02:01:04;17.58;;;7.90;;
14169;SDS011;63889;50.596;8.690;2023-02-20T02:03:30;15.18;;;8.27;;
14169;SDS011;63889;50.596;8.690;2023-02-20T02:06:00;13.50;;;7.22;;
14169;SDS011;63889;50.596;8.690;2023-02-20T02:08:29;20.02;;;7.88;;
14169;SDS011;63889;50.596;8.690;2023-02-20T02:13:33;14.00;;;7.20;;
14169;SDS011;63889;50.596;8.690;2023-02-20T02:16:03;18.67;;;7.60;;
14169;SDS011;63889;50.596;8.690;2023-02-20T02:32:34;16.17;;;7.07;;
14169;SDS011;63889;50.596;8.690;2023-02-20T02:38:18;20.02;;;7.80;;
14169;SDS011;63889;50.596;8.690;2023-02-20T02:40:56;17.45;;;7.63;;
14169;SDS011;63889;50.596;8.690;2023-02-20T02:43:39;14.13;;;8.00;;
14169;SDS011;63889;50.596;8.690;2023-02-20T02:46:21;15.20;;;6.95;;
14169;SDS011;63889;50.596;8.690;2023-02-20T02:51:50;13.95;;;6.90;;
14169;SDS011;63889;50.596;8.690;2023-02-20T02:54:19;12.60;;;7.03;;
14169;SDS011;63889;50.596;8.690;2023-02-20T02:59:55;14.05;;;7.07;;
14169;SDS011;63889;50.596;8.690;2023-02-20T03:02:24;14.45;;;7.05;;
14169;SDS011;63889;50.596;8.690;2023-02-20T03:04:55;12.32;;;6.18;;
14169;SDS011;63889;50.596;8.690;2023-02-20T03:07:23;18.90;;;6.32;;
14169;SDS011;63889;50.596;8.690;2023-02-20T03:10:08;11.77;;;6.03;;
14169;SDS011;63889;50.596;8.690;2023-02-20T03:12:40;13.40;;;6.43;;
14169;SDS011;63889;50.596;8.690;2023-02-20T03:15:24;14.10;;;6.50;;
14169;SDS011;63889;50.596;8.690;2023-02-20T03:18:15;11.88;;;6.25;;
14169;SDS011;63889;50.596;8.690;2023-02-20T03:20:59;10.15;;;5.47;;
14169;SDS011;63889;50.596;8.690;2023-02-20T03:23:33;9.48;;;5.68;;
14169;SDS011;63889;50.596;8.690;2023-02-20T03:26:04;11.02;;;5.45;;
14169;SDS011;63889;50.596;8.690;2023-02-20T03:28:41;8.98;;;5.13;;
14169;SDS011;63889;50.596;8.690;2023-02-20T03:31:18;9.15;;;4.72;;
14169;SDS011;63889;50.596;8.690;2023-02-20T03:37:01;14.55;;;5.50;;
14169;SDS011;63889;50.596;8.690;2023-02-20T03:39:52;12.10;;;5.60;;
14169;SDS011;63889;50.596;8.690;2023-02-20T03:42:43;12.65;;;5.03;;
14169;SDS011;63889;50.596;8.690;2023-02-20T03:45:30;14.60;;;5.78;;
14169;SDS011;63889;50.596;8.690;2023-02-20T03:47:58;10.10;;;5.50;;
14169;SDS011;63889;50.596;8.690;2023-02-20T03:50:28;11.57;;;5.28;;
14169;SDS011;63889;50.596;8.690;2023-02-20T03:53:12;10.70;;;5.00;;
14169;SDS011;63889;50.596;8.690;2023-02-20T03:55:38;11.32;;;4.57;;
14169;SDS011;63889;50.596;8.690;2023-02-20T03:58:04;11.55;;;5.35;;
14169;SDS011;63889;50.596;8.690;2023-02-20T04:00:35;10.48;;;4.90;;
14169;SDS011;63889;50.596;8.690;2023-02-20T04:05:41;7.72;;;4.35;;
14169;SDS011;63889;50.596;8.690;2023-02-20T04:08:20;7.68;;;4.20;;
14169;SDS011;63889;50.596;8.690;2023-02-20T04:11:05;10.23;;;4.38;;
14169;SDS011;63889;50.596;8.690;2023-02-20T04:13:47;7.57;;;3.38;;
14169;SDS011;63889;50.596;8.690;2023-02-20T04:16:15;5.60;;;3.85;;
14169;SDS011;63889;50.596;8.690;2023-02-20T04:18:42;6.47;;;3.50;;
14169;SDS011;63889;50.596;8.690;2023-02-20T04:24:07;8.02;;;4.43;;
14169;SDS011;63889;50.596;8.690;2023-02-20T04:26:36;7.68;;;3.92;;
14169;SDS011;63889;50.596;8.690;2023-02-20T04:29:03;5.70;;;3.42;;
14169;SDS011;63889;50.596;8.690;2023-02-20T04:31:29;7.65;;;3.45;;
14169;SDS011;63889;50.596;8.690;2023-02-20T04:33:55;7.97;;;3.05;;
14169;SDS011;63889;50.596;8.690;2023-02-20T04:36:20;6.45;;;3.10;;
14169;SDS011;63889;50.596;8.690;2023-02-20T04:38:46;6.47;;;3.33;;
14169;SDS011;63889;50.596;8.690;2023-02-20T04:41:12;8.20;;;2.85;;
14169;SDS011;63889;50.596;8.690;2023-02-20T04:43:37;8.23;;;3.45;;
14169;SDS011;63889;50.596;8.690;2023-02-20T04:46:03;9.40;;;3.78;;
14169;SDS011;63889;50.596;8.690;2023-02-20T04:48:29;5.18;;;2.65;;
14169;SDS011;63889;50.596;8.690;2023-02-20T04:50:54;10.43;;;3.50;;
14169;SDS011;63889;50.596;8.690;2023-02-20T04:53:20;5.78;;;3.67;;
14169;SDS011;63889;50.596;8.690;2023-02-20T04:55:45;8.20;;;3.60;;
14169;SDS011;63889;50.596;8.690;2023-02-20T04:58:11;5.88;;;3.13;;
14169;SDS011;63889;50.596;8.690;2023-02-20T05:00:36;6.93;;;3.28;;
14169;SDS011;63889;50.596;8.690;2023-02-20T05:03:02;9.45;;;3.53;;
14169;SDS011;63889;50.596;8.690;2023-02-20T05:05:28;6.13;;;3.10;;
14169;SDS011;63889;50.596;8.690;2023-02-20T05:07:55;7.57;;;3.70;;
14169;SDS011;63889;50.596;8.690;2023-02-20T05:10:21;12.57;;;4.07;;
14169;SDS011;63889;50.596;8.690;2023-02-20T05:12:47;7.22;;;3.53;;
14169;SDS011;63889;50.596;8.690;2023-02-20T05:15:13;11.82;;;4.13;;
14169;SDS011;63889;50.596;8.690;2023-02-20T05:17:39;9.20;;;3.90;;
14169;SDS011;63889;50.596;8.690;2023-02-20T05:20:05;9.73;;;3.38;;
14169;SDS011;63889;50.596;8.690;2023-02-20T05:22:32;8.73;;;4.00;;
14169;SDS011;63889;50.596;8.690;2023-02-20T05:24:58;8.18;;;3.58;;
14169;SDS011;63889;50.596;8.690;2023-02-20T05:27:23;11.15;;;3.95;;
14169;SDS011;63889;50.596;8.690;2023-02-20T05:29:51;12.38;;;4.97;;
14169;SDS011;63889;50.596;8.690;2023-02-20T05:32:18;11.00;;;3.95;;
14169;SDS011;63889;50.596;8.690;2023-02-20T05:34:45;11.07;;;3.50;;
14169;SDS011;63889;50.596;8.690;2023-02-20T05:37:12;8.30;;;3.88;;
14169;SDS011;63889;50.596;8.690;2023-02-20T05:39:39;8.73;;;3.75;;
14169;SDS011;63889;50.596;8.690;2023-02-20T05:42:05;9.27;;;4.95;;
14169;SDS011;63889;50.596;8.690;2023-02-20T05:44:31;9.85;;;4.80;;
14169;SDS011;63889;50.596;8.690;2023-02-20T05:46:57;6.82;;;3.72;;
14169;SDS011;63889;50.596;8.690;2023-02-20T05:49:22;8.07;;;4.07;;
14169;SDS011;63889;50.596;8.690;2023-02-20T05:51:48;11.13;;;4.10;;
14169;SDS011;63889;50.596;8.690;2023-02-20T05:54:15;8.07;;;3.83;;
14169;SDS011;63889;50.596;8.690;2023-02-20T05:56:44;12.68;;;4.43;;
14169;SDS011;63889;50.596;8.690;2023-02-20T05:59:11;13.45;;;4.38;;
14169;SDS011;63889;50.596;8.690;2023-02-20T06:01:38;10.32;;;4.63;;
14169;SDS011;63889;50.596;8.690;2023-02-20T06:04:03;10.77;;;4.40;;
14169;SDS011;63889;50.596;8.690;2023-02-20T06:06:33;14.13;;;5.18;;
14169;SDS011;63889;50.596;8.690;2023-02-20T06:09:00;11.23;;;5.10;;
14169;SDS011;63889;50.596;8.690;2023-02-20T06:11:27;14.27;;;5.53;;
14169;SDS011;63889;50.596;8.690;2023-02-20T06:13:53;12.80;;;4.55;;
14169;SDS011;63889;50.596;8.690;2023-02-20T06:16:22;10.23;;;4.70;;
14169;SDS011;63889;50.596;8.690;2023-02-20T06:18:49;11.73;;;5.82;;
14169;SDS011;63889;50.596;8.690;2023-02-20T06:21:15;12.52;;;6.00;;
14169;SDS011;63889;50.596;8.690;2023-02-20T06:23:42;12.98;;;6.05;;
14169;SDS011;63889;50.596;8.690;2023-02-20T06:26:09;16.52;;;6.75;;
14169;SDS011;63889;50.596;8.690;2023-02-20T06:28:36;11.10;;;6.00;;
14169;SDS011;63889;50.596;8.690;2023-02-20T06:31:02;13.10;;;5.50;;
14169;SDS011;63889;50.596;8.690;2023-02-20T06:33:28;14.70;;;5.63;;
14169;SDS011;63889;50.596;8.690;2023-02-20T06:35:54;11.48;;;5.07;;
14169;SDS011;63889;50.596;8.690;2023-02-20T06:38:20;14.85;;;5.43;;
14169;SDS011;63889;50.596;8.690;2023-02-20T06:40:45;13.90;;;4.95;;
14169;SDS011;63889;50.596;8.690;2023-02-20T06:43:11;12.20;;;5.22;;
14169;SDS011;63889;50.596;8.690;2023-02-20T06:45:36;10.90;;;5.32;;
14169;SDS011;63889;50.596;8.690;2023-02-20T06:48:02;13.38;;;5.35;;
14169;SDS011;63889;50.596;8.690;2023-02-20T06:50:28;17.00;;;4.88;;
14169;SDS011;63889;50.596;8.690;2023-02-20T06:52:53;31.45;;;5.82;;
14169;SDS011;63889;50.596;8.690;2023-02-20T06:55:19;16.60;;;5.65;;
14169;SDS011;63889;50.596;8.690;2023-02-20T06:57:44;14.25;;;5.60;;
14169;SDS011;63889;50.596;8.690;2023-02-20T07:00:10;14.63;;;5.25;;
14169;SDS011;63889;50.596;8.690;2023-02-20T07:02:39;14.80;;;5.80;;
14169;SDS011;63889;50.596;8.690;2023-02-20T07:05:05;11.63;;;4.13;;
14169;SDS011;63889;50.596;8.690;2023-02-20T07:07:32;11.32;;;4.30;;
14169;SDS011;63889;50.596;8.690;2023-02-20T07:09:58;14.20;;;4.88;;
14169;SDS011;63889;50.596;8.690;2023-02-20T07:12:28;11.75;;;4.63;;
14169;SDS011;63889;50.596;8.690;2023-02-20T07:14:55;10.57;;;4.45;;
14169;SDS011;63889;50.596;8.690;2023-02-20T07:17:20;11.05;;;4.50;;
14169;SDS011;63889;50.596;8.690;2023-02-20T07:19:46;11.38;;;4.53;;
14169;SDS011;63889;50.596;8.690;2023-02-20T07:22:11;17.75;;;4.60;;
14169;SDS011;63889;50.596;8.690;2023-02-20T07:24:37;7.65;;;3.88;;
14169;SDS011;63889;50.596;8.690;2023-02-20T07:27:05;13.30;;;4.25;;
14169;SDS011;63889;50.596;8.690;2023-02-20T07:29:31;10.93;;;3.53;;
14169;SDS011;63889;50.596;8.690;2023-02-20T07:31:57;9.25;;;3.50;;
14169;SDS011;63889;50.596;8.690;2023-02-20T07:34:22;11.50;;;4.07;;
14169;SDS011;63889;50.596;8.690;2023-02-20T07:36:48;9.98;;;3.70;;
14169;SDS011;63889;50.596;8.690;2023-02-20T07:39:13;9.40;;;3.13;;
14169;SDS011;63889;50.596;8.690;2023-02-20T07:41:39;12.38;;;3.47;;
14169;SDS011;63889;50.596;8.690;2023-02-20T07:44:05;5.10;;;2.72;;
14169;SDS011;63889;50.596;8.690;2023-02-20T07:46:31;7.53;;;3.10;;
14169;SDS011;63889;50.596;8.690;2023-02-20T07:51:54;8.45;;;3.20;;
14169;SDS011;63889;50.596;8.690;2023-02-20T07:54:20;8.88;;;2.70;;
14169;SDS011;63889;50.596;8.690;2023-02-20T07:56:45;4.45;;;2.65;;
14169;SDS011;63889;50.596;8.690;2023-02-20T07:59:11;7.90;;;2.58;;
14169;SDS011;63889;50.596;8.690;2023-02-20T08:01:36;6.57;;;3.00;;
14169;SDS011;63889;50.596;8.690;2023-02-20T08:04:02;10.95;;;2.60;;
14169;SDS011;63889;50.596;8.690;2023-02-20T08:06:27;4.18;;;2.28;;
14169;SDS011;63889;50.596;8.690;2023-02-20T08:08:53;3.92;;;2.40;;
14169;SDS011;63889;50.596;8.690;2023-02-20T08:11:19;6.03;;;2.35;;
14169;SDS011;63889;50.596;8.690;2023-02-20T08:13:46;4.72;;;2.53;;
14169;SDS011;63889;50.596;8.690;2023-02-20T08:16:12;10.70;;;3.53;;
14169;SDS011;63889;50.596;8.690;2023-02-20T08:18:37;8.95;;;2.80;;
14169;SDS011;63889;50.596;8.690;2023-02-20T08:21:03;7.03;;;2.30;;
14169;SDS011;63889;50.596;8.690;2023-02-20T08:23:28;6.80;;;2.58;;
14169;SDS011;63889;50.596;8.690;2023-02-20T08:25:54;7.65;;;2.83;;
14169;SDS011;63889;50.596;8.690;2023-02-20T08:28:20;9.60;;;2.65;;
14169;SDS011;63889;50.596;8.690;2023-02-20T08:30:46;7.82;;;2.70;;
14169;SDS011;63889;50.596;8.690;2023-02-20T08:33:11;10.77;;;2.67;;
14169;SDS011;63889;50.596;8.690;2023-02-20T08:35:37;6.80;;;2.55;;
14169;SDS011;63889;50.596;8.690;2023-02-20T08:38:04;9.52;;;2.60;;
14169;SDS011;63889;50.596;8.690;2023-02-20T08:40:30;8.05;;;2.63;;
14169;SDS011;63889;50.596;8.690;2023-02-20T08:42:56;6.38;;;2.08;;
14169;SDS011;63889;50.596;8.690;2023-02-20T08:45:23;4.55;;;2.30;;
14169;SDS011;63889;50.596;8.690;2023-02-20T08:47:49;7.97;;;3.30;;
14169;SDS011;63889;50.596;8.690;2023-02-20T08:50:16;12.93;;;2.40;;
14169;SDS011;63889;50.596;8.690;2023-02-20T08:52:42;8.35;;;2.60;;
14169;SDS011;63889;50.596;8.690;2023-02-20T08:55:09;3.97;;;2.67;;
14169;SDS011;63889;50.596;8.690;2023-02-20T08:57:35;10.57;;;2.95;;
14169;SDS011;63889;50.596;8.690;2023-02-20T09:00:00;6.00;;;2.95;;
14169;SDS011;63889;50.596;8.690;2023-02-20T09:02:26;9.40;;;2.72;;
14169;SDS011;63889;50.596;8.690;2023-02-20T09:04:53;9.30;;;3.10;;
14169;SDS011;63889;50.596;8.690;2023-02-20T09:07:20;7.43;;;2.53;;
14169;SDS011;63889;50.596;8.690;2023-02-20T09:09:45;9.50;;;3.50;;
14169;SDS011;63889;50.596;8.690;2023-02-20T09:12:11;7.88;;;2.78;;
14169;SDS011;63889;50.596;8.690;2023-02-20T09:14:37;10.93;;;2.85;;
14169;SDS011;63889;50.596;8.690;2023-02-20T09:17:02;8.10;;;2.70;;
14169;SDS011;63889;50.596;8.690;2023-02-20T09:19:29;6.20;;;2.53;;
14169;SDS011;63889;50.596;8.690;2023-02-20T09:21:55;7.35;;;2.95;;
14169;SDS011;63889;50.596;8.690;2023-02-20T09:24:20;10.35;;;2.63;;
14169;SDS011;63889;50.596;8.690;2023-02-20T09:26:46;8.93;;;2.67;;
14169;SDS011;63889;50.596;8.690;2023-02-20T09:29:12;6.03;;;2.97;;
14169;SDS011;63889;50.596;8.690;2023-02-20T09:31:37;5.97;;;2.30;;
14169;SDS011;63889;50.596;8.690;2023-02-20T09:34:03;5.18;;;2.33;;
14169;SDS011;63889;50.596;8.690;2023-02-20T09:36:28;5.75;;;2.90;;
14169;SDS011;63889;50.596;8.690;2023-02-20T09:38:54;8.50;;;2.42;;
14169;SDS011;63889;50.596;8.690;2023-02-20T09:46:43;5.53;;;2.63;;
14169;SDS011;63889;50.596;8.690;2023-02-20T09:49:13;8.95;;;2.50;;
14169;SDS011;63889;50.596;8.690;2023-02-20T09:51:44;5.38;;;2.40;;
14169;SDS011;63889;50.596;8.690;2023-02-20T09:54:17;7.88;;;2.22;;
14169;SDS011;63889;50.596;8.690;2023-02-20T10:00:18;3.87;;;2.50;;
14169;SDS011;63889;50.596;8.690;2023-02-20T10:02:53;5.35;;;2.45;;
14169;SDS011;63889;50.596;8.690;2023-02-20T10:05:28;5.80;;;2.20;;
14169;SDS011;63889;50.596;8.690;2023-02-20T10:07:54;4.35;;;2.13;;
14169;SDS011;63889;50.596;8.690;2023-02-20T10:12:54;9.77;;;2.40;;
14169;SDS011;63889;50.596;8.690;2023-02-20T10:15:25;7.45;;;2.50;;
14169;SDS011;63889;50.596;8.690;2023-02-20T10:20:57;4.60;;;2.08;;
14169;SDS011;63889;50.596;8.690;2023-02-20T10:28:50;4.07;;;2.08;;
14169;SDS011;63889;50.596;8.690;2023-02-20T10:31:32;6.60;;;2.17;;
14169;SDS011;63889;50.596;8.690;2023-02-20T10:34:08;3.80;;;1.90;;
14169;SDS011;63889;50.596;8.690;2023-02-20T10:36:40;4.35;;;1.52;;
14169;SDS011;63889;50.596;8.690;2023-02-20T10:39:12;4.35;;;1.98;;
14169;SDS011;63889;50.596;8.690;2023-02-20T10:41:53;5.95;;;1.50;;
14169;SDS011;63889;50.596;8.690;2023-02-20T10:50:04;4.55;;;1.90;;
14169;SDS011;63889;50.596;8.690;2023-02-20T10:55:41;3.22;;;1.80;;
14169;SDS011;63889;50.596;8.690;2023-02-20T11:00:45;4.38;;;1.90;;
14169;SDS011;63889;50.596;8.690;2023-02-20T11:03:16;4.28;;;1.63;;
14169;SDS011;63889;50.596;8.690;2023-02-20T11:05:49;4.35;;;1.88;;
14169;SDS011;63889;50.596;8.690;2023-02-20T11:08:18;7.57;;;2.03;;
14169;SDS011;63889;50.596;8.690;2023-02-20T11:10:49;3.58;;;1.65;;
14169;SDS011;63889;50.596;8.690;2023-02-20T11:13:21;3.40;;;1.45;;
14169;SDS011;63889;50.596;8.690;2023-02-20T11:15:49;5.50;;;1.58;;
14169;SDS011;63889;50.596;8.690;2023-02-20T11:18:25;7.20;;;2.20;;
14169;SDS011;63889;50.596;8.690;2023-02-20T11:20:58;5.63;;;1.98;;
14169;SDS011;63889;50.596;8.690;2023-02-20T11:26:14;3.80;;;1.85;;
14169;SDS011;63889;50.596;8.690;2023-02-20T11:29:05;4.03;;;1.70;;
14169;SDS011;63889;50.596;8.690;2023-02-20T11:31:38;6.57;;;1.55;;
14169;SDS011;63889;50.596;8.690;2023-02-20T11:34:09;7.38;;;1.98;;
14169;SDS011;63889;50.596;8.690;2023-02-20T11:36:53;3.55;;;1.38;;
14169;SDS011;63889;50.596;8.690;2023-02-20T11:42:10;4.03;;;2.00;;
14169;SDS011;63889;50.596;8.690;2023-02-20T11:44:43;4.22;;;2.28;;
14169;SDS011;63889;50.596;8.690;2023-02-20T11:49:43;3.28;;;1.45;;
14169;SDS011;63889;50.596;8.690;2023-02-20T11:52:14;5.63;;;1.90;;
14169;SDS011;63889;50.596;8.690;2023-02-20T11:54:44;4.13;;;1.70;;
14169;SDS011;63889;50.596;8.690;2023-02-20T11:59:46;2.65;;;1.58;;
14169;SDS011;63889;50.596;8.690;2023-02-20T12:04:42;6.03;;;1.80;;
14169;SDS011;63889;50.596;8.690;2023-02-20T12:07:44;1.75;;;1.25;;
14169;SDS011;63889;50.596;8.690;2023-02-20T12:12:55;3.40;;;1.60;;
14169;SDS011;63889;50.596;8.690;2023-02-20T12:15:22;6.50;;;1.55;;
14169;SDS011;63889;50.596;8.690;2023-02-20T12:20:51;3.70;;;1.38;;
14169;SDS011;63889;50.596;8.690;2023-02-20T12:23:31;5.78;;;1.58;;
14169;SDS011;63889;50.596;8.690;2023-02-20T12:26:21;6.85;;;3.25;;
14169;SDS011;63889;50.596;8.690;2023-02-20T12:34:38;10.43;;;2.22;;
14169;SDS011;63889;50.596;8.690;2023-02-20T12:42:31;3.13;;;1.42;;
14169;SDS011;63889;50.596;8.690;2023-02-20T12:45:26;2.53;;;1.40;;
14169;SDS011;63889;50.596;8.690;2023-02-20T12:50:55;2.13;;;1.30;;
14169;SDS011;63889;50.596;8.690;2023-02-20T12:56:26;4.00;;;1.73;;
14169;SDS011;63889;50.596;8.690;2023-02-20T12:59:21;3.20;;;1.40;;
14169;SDS011;63889;50.596;8.690;2023-02-20T13:02:16;3.78;;;1.50;;
14169;SDS011;63889;50.596;8.690;2023-02-20T13:04:56;3.15;;;1.70;;
14169;SDS011;63889;50.596;8.690;2023-02-20T13:07:25;5.18;;;1.65;;
14169;SDS011;63889;50.596;8.690;2023-02-20T13:10:02;6.47;;;1.85;;
14169;SDS011;63889;50.596;8.690;2023-02-20T13:12:32;7.22;;;2.30;;
14169;SDS011;63889;50.596;8.690;2023-02-20T13:18:10;5.90;;;1.77;;
14169;SDS011;63889;50.596;8.690;2023-02-20T13:20:56;3.17;;;1.80;;
14169;SDS011;63889;50.596;8.690;2023-02-20T13:23:34;4.10;;;1.80;;
14169;SDS011;63889;50.596;8.690;2023-02-20T13:26:02;6.40;;;2.15;;
14169;SDS011;63889;50.596;8.690;2023-02-20T13:28:50;6.18;;;2.17;;
14169;SDS011;63889;50.596;8.690;2023-02-20T13:31:21;4.15;;;2.25;;
14169;SDS011;63889;50.596;8.690;2023-02-20T13:34:36;7.07;;;2.30;;
14169;SDS011;63889;50.596;8.690;2023-02-20T13:36:36;4.50;;;2.20;;
14169;SDS011;63889;50.596;8.690;2023-02-20T13:41:55;4.70;;;1.67;;
14169;SDS011;63889;50.596;8.690;2023-02-20T13:46:54;6.93;;;2.10;;
14169;SDS011;63889;50.596;8.690;2023-02-20T13:54:56;7.00;;;2.35;;
14169;SDS011;63889;50.596;8.690;2023-02-20T13:57:33;4.32;;;2.30;;
14169;SDS011;63889;50.596;8.690;2023-02-20T14:02:53;3.13;;;2.20;;
14169;SDS011;63889;50.596;8.690;2023-02-20T14:05:27;4.80;;;2.28;;
14169;SDS011;63889;50.596;8.690;2023-02-20T14:07:54;6.40;;;2.95;;
14169;SDS011;63889;50.596;8.690;2023-02-20T14:13:10;5.97;;;2.33;;
14169;SDS011;63889;50.596;8.690;2023-02-20T14:15:57;6.55;;;2.80;;
14169;SDS011;63889;50.596;8.690;2023-02-20T14:18:28;6.82;;;3.13;;
14169;SDS011;63889;50.596;8.690;2023-02-20T14:23:28;7.28;;;3.22;;
14169;SDS011;63889;50.596;8.690;2023-02-20T14:25:56;6.55;;;2.70;;
14169;SDS011;63889;50.596;8.690;2023-02-20T14:28:22;4.95;;;2.65;;
14169;SDS011;63889;50.596;8.690;2023-02-20T14:33:31;6.63;;;2.78;;
14169;SDS011;63889;50.596;8.690;2023-02-20T14:36:41;6.57;;;3.28;;
14169;SDS011;63889;50.596;8.690;2023-02-20T14:41:38;8.38;;;2.90;;
14169;SDS011;63889;50.596;8.690;2023-02-20T14:44:16;4.70;;;2.78;;
14169;SDS011;63889;50.596;8.690;2023-02-20T14:46:43;5.88;;;2.53;;
14169;SDS011;63889;50.596;8.690;2023-02-20T14:49:11;6.22;;;2.80;;
14169;SDS011;63889;50.596;8.690;2023-02-20T14:51:39;6.30;;;3.40;;
14169;SDS011;63889;50.596;8.690;2023-02-20T14:54:16;11.98;;;3.75;;
14169;SDS011;63889;50.596;8.690;2023-02-20T14:56:44;5.75;;;3.25;;
14169;SDS011;63889;50.596;8.690;2023-02-20T14:59:53;6.97;;;3.03;;
14169;SDS011;63889;50.596;8.690;2023-02-20T15:04:48;6.38;;;2.33;;
14169;SDS011;63889;50.596;8.690;2023-02-20T15:07:14;5.63;;;2.55;;
14169;SDS011;63889;50.596;8.690;2023-02-20T15:09:42;5.32;;;2.67;;
14169;SDS011;63889;50.596;8.690;2023-02-20T15:12:24;7.13;;;3.65;;
14169;SDS011;63889;50.596;8.690;2023-02-20T15:15:11;6.50;;;3.08;;
14169;SDS011;63889;50.596;8.690;2023-02-20T15:17:39;6.38;;;3.30;;
14169;SDS011;63889;50.596;8.690;2023-02-20T15:20:19;5.88;;;2.95;;
14169;SDS011;63889;50.596;8.690;2023-02-20T15:23:07;5.40;;;2.75;;
14169;SDS011;63889;50.596;8.690;2023-02-20T15:25:48;9.60;;;3.08;;
14169;SDS011;63889;50.596;8.690;2023-02-20T15:33:30;7.10;;;3.25;;
14169;SDS011;63889;50.596;8.690;2023-02-20T15:35:58;8.77;;;3.08;;
14169;SDS011;63889;50.596;8.690;2023-02-20T15:38:28;9.35;;;3.53;;
14169;SDS011;63889;50.596;8.690;2023-02-20T15:40:56;8.32;;;2.95;;
14169;SDS011;63889;50.596;8.690;2023-02-20T15:43:23;7.10;;;3.05;;
14169;SDS011;63889;50.596;8.690;2023-02-20T15:45:49;9.05;;;2.90;;
14169;SDS011;63889;50.596;8.690;2023-02-20T15:48:15;7.95;;;2.90;;
14169;SDS011;63889;50.596;8.690;2023-02-20T15:50:41;6.38;;;2.60;;
14169;SDS011;63889;50.596;8.690;2023-02-20T15:53:08;7.65;;;2.80;;
14169;SDS011;63889;50.596;8.690;2023-02-20T15:55:39;7.07;;;3.03;;
14169;SDS011;63889;50.596;8.690;2023-02-20T15:58:05;7.97;;;2.85;;
14169;SDS011;63889;50.596;8.690;2023-02-20T16:00:43;6.80;;;3.15;;
14169;SDS011;63889;50.596;8.690;2023-02-20T16:03:09;6.55;;;2.90;;
14169;SDS011;63889;50.596;8.690;2023-02-20T16:05:34;8.10;;;2.90;;
14169;SDS011;63889;50.596;8.690;2023-02-20T16:08:00;7.47;;;2.53;;
14169;SDS011;63889;50.596;8.690;2023-02-20T16:10:25;7.18;;;2.67;;
14169;SDS011;63889;50.596;8.690;2023-02-20T16:12:51;5.20;;;2.58;;
14169;SDS011;63889;50.596;8.690;2023-02-20T16:15:19;5.65;;;2.47;;
14169;SDS011;63889;50.596;8.690;2023-02-20T16:17:49;7.38;;;2.22;;
14169;SDS011;63889;50.596;8.690;2023-02-20T16:20:20;8.05;;;2.72;;
14169;SDS011;63889;50.596;8.690;2023-02-20T16:22:48;5.25;;;2.60;;
14169;SDS011;63889;50.596;8.690;2023-02-20T16:25:15;8.13;;;2.55;;
14169;SDS011;63889;50.596;8.690;2023-02-20T16:27:42;4.90;;;2.38;;
14169;SDS011;63889;50.596;8.690;2023-02-20T16:30:31;5.57;;;2.17;;
14169;SDS011;63889;50.596;8.690;2023-02-20T16:33:18;5.95;;;2.25;;
14169;SDS011;63889;50.596;8.690;2023-02-20T16:35:45;7.95;;;2.45;;
14169;SDS011;63889;50.596;8.690;2023-02-20T16:38:12;9.70;;;2.45;;
14169;SDS011;63889;50.596;8.690;2023-02-20T16:40:39;7.85;;;2.55;;
14169;SDS011;63889;50.596;8.690;2023-02-20T16:43:04;5.13;;;2.72;;
14169;SDS011;63889;50.596;8.690;2023-02-20T16:45:31;7.93;;;3.25;;
14169;SDS011;63889;50.596;8.690;2023-02-20T16:47:57;9.23;;;3.17;;
14169;SDS011;63889;50.596;8.690;2023-02-20T16:50:24;6.00;;;2.20;;
14169;SDS011;63889;50.596;8.690;2023-02-20T16:52:54;8.70;;;2.37;;
14169;SDS011;63889;50.596;8.690;2023-02-20T16:55:25;6.10;;;2.60;;
14169;SDS011;63889;50.596;8.690;2023-02-20T16:57:53;7.88;;;2.15;;
14169;SDS011;63889;50.596;8.690;2023-02-20T17:00:24;6.68;;;2.42;;
14169;SDS011;63889;50.596;8.690;2023-02-20T17:02:52;6.03;;;2.25;;
14169;SDS011;63889;50.596;8.690;2023-02-20T17:05:28;5.07;;;2.45;;
14169;SDS011;63889;50.596;8.690;2023-02-20T17:07:56;4.30;;;2.13;;
14169;SDS011;63889;50.596;8.690;2023-02-20T17:10:23;7.20;;;2.30;;
14169;SDS011;63889;50.596;8.690;2023-02-20T17:12:49;6.63;;;2.95;;
14169;SDS011;63889;50.596;8.690;2023-02-20T17:15:16;12.88;;;3.28;;
14169;SDS011;63889;50.596;8.690;2023-02-20T17:17:43;12.25;;;3.58;;